createdAt,value
2016-11-18T00:00:18.078Z,987.96
2016-11-18T00:01:17.802Z,987.97
2016-11-18T00:02:17.696Z,987.97
2016-11-18T00:03:17.825Z,987.95
2016-11-18T00:04:17.835Z,987.89
2016-11-18T00:05:17.824Z,987.88
2016-11-18T00:06:18.199Z,987.89
2016-11-18T00:07:17.939Z,987.79
2016-11-18T00:08:17.842Z,987.89
2016-11-18T00:09:17.947Z,987.84
2016-11-18T00:10:17.850Z,987.79
2016-11-18T00:11:17.805Z,987.81
2016-11-18T00:12:17.947Z,987.7
2016-11-18T00:13:18.181Z,987.68
2016-11-18T00:14:17.947Z,987.64
2016-11-18T00:15:18.085Z,987.76
2016-11-18T00:16:17.842Z,987.69
2016-11-18T00:17:18.059Z,987.63
2016-11-18T00:18:17.958Z,987.58
2016-11-18T00:19:18.068Z,987.57
2016-11-18T00:20:18.057Z,987.53
2016-11-18T00:21:17.962Z,987.55
2016-11-18T00:22:18.059Z,987.55
2016-11-18T00:23:18.190Z,987.59
2016-11-18T00:24:18.544Z,987.58
2016-11-18T00:25:18.294Z,987.59
2016-11-18T00:26:18.321Z,987.56
2016-11-18T00:27:18.185Z,987.49
2016-11-18T00:28:18.085Z,987.43
2016-11-18T00:29:18.454Z,987.42
2016-11-18T00:30:18.175Z,987.42
2016-11-18T00:31:18.067Z,987.43
2016-11-18T00:32:18.445Z,987.39
2016-11-18T00:33:18.176Z,987.4
2016-11-18T00:34:18.453Z,987.39
2016-11-18T00:35:18.430Z,987.41
2016-11-18T00:36:18.436Z,987.32
2016-11-18T00:37:18.449Z,987.39
2016-11-18T00:38:18.198Z,987.3
2016-11-18T00:39:18.219Z,987.32
2016-11-18T00:40:18.421Z,987.36
2016-11-18T00:41:18.341Z,987.38
2016-11-18T00:42:18.546Z,987.41
2016-11-18T00:43:18.342Z,987.5
2016-11-18T00:44:18.434Z,987.42
2016-11-18T00:45:18.553Z,987.38
2016-11-18T00:46:18.545Z,987.37
2016-11-18T00:47:18.576Z,987.38
2016-11-18T00:48:18.466Z,987.29
2016-11-18T00:49:18.463Z,987.36
2016-11-18T00:50:18.561Z,987.34
2016-11-18T00:51:18.438Z,987.28
2016-11-18T00:52:18.549Z,987.32
2016-11-18T00:53:18.468Z,987.25
2016-11-18T00:54:18.543Z,987.18
2016-11-18T00:55:18.582Z,987.12
2016-11-18T00:56:18.558Z,987.11
2016-11-18T00:57:18.588Z,987.14
2016-11-18T00:58:18.713Z,986.96
2016-11-18T00:59:18.704Z,986.95
2016-11-18T01:00:18.691Z,986.87
2016-11-18T01:01:18.704Z,986.86
2016-11-18T01:02:18.946Z,986.92
2016-11-18T01:03:18.737Z,986.97
2016-11-18T01:04:18.821Z,987.02
2016-11-18T01:05:18.603Z,986.91
2016-11-18T01:06:18.922Z,986.91
2016-11-18T01:07:18.945Z,986.94
2016-11-18T01:08:18.709Z,986.92
2016-11-18T01:09:18.838Z,986.89
2016-11-18T01:10:18.710Z,986.85
2016-11-18T01:11:18.832Z,986.8
2016-11-18T01:12:18.956Z,986.78
2016-11-18T01:13:18.836Z,986.8
2016-11-18T01:14:18.916Z,986.85
2016-11-18T01:15:18.915Z,986.84
2016-11-18T01:16:18.957Z,986.87
2016-11-18T01:17:19.082Z,986.99
2016-11-18T01:18:18.945Z,986.93
2016-11-18T01:19:19.044Z,986.93
2016-11-18T01:20:19.043Z,986.86
2016-11-18T01:21:19.153Z,986.76
2016-11-18T01:22:19.172Z,986.76
2016-11-18T01:23:19.318Z,986.74
2016-11-18T01:24:19.162Z,986.65
2016-11-18T01:25:19.166Z,986.69
2016-11-18T01:26:19.200Z,986.73
2016-11-18T01:27:19.300Z,986.74
2016-11-18T01:28:19.183Z,986.72
2016-11-18T01:29:19.159Z,986.73
2016-11-18T01:30:19.181Z,986.72
2016-11-18T01:31:19.095Z,986.65
2016-11-18T01:32:19.294Z,986.66
2016-11-18T01:33:19.326Z,986.57
2016-11-18T01:34:19.303Z,986.67
2016-11-18T01:35:19.328Z,986.62
2016-11-18T01:36:19.443Z,986.63
2016-11-18T01:37:19.450Z,986.59
2016-11-18T01:38:19.327Z,986.58
2016-11-18T01:39:19.654Z,986.51
2016-11-18T01:40:19.424Z,986.47
2016-11-18T01:41:19.647Z,986.51
2016-11-18T01:42:19.706Z,986.53
2016-11-18T01:43:19.572Z,986.47
2016-11-18T01:44:19.585Z,986.33
2016-11-18T01:45:19.684Z,986.29
2016-11-18T01:46:19.674Z,986.34
2016-11-18T01:47:19.809Z,986.38
2016-11-18T01:48:19.698Z,986.36
2016-11-18T01:49:19.677Z,986.37
2016-11-18T01:50:19.546Z,986.36
2016-11-18T01:51:19.821Z,986.4
2016-11-18T01:52:19.902Z,986.46
2016-11-18T01:53:20.075Z,986.41
2016-11-18T01:54:20.419Z,986.4
2016-11-18T01:55:19.815Z,986.38
2016-11-18T01:56:20.048Z,986.38
2016-11-18T01:57:19.941Z,986.37
2016-11-18T01:58:19.894Z,986.3
2016-11-18T01:59:20.068Z,986.32
2016-11-18T02:00:20.088Z,986.3
2016-11-18T02:01:19.825Z,986.25
2016-11-18T02:02:19.822Z,986.22
2016-11-18T02:03:20.145Z,986.12
2016-11-18T02:04:20.063Z,986.1
2016-11-18T02:05:20.062Z,986.09
2016-11-18T02:06:19.943Z,986.14
2016-11-18T02:07:20.907Z,986.11
2016-11-18T02:08:20.269Z,986.07
2016-11-18T02:09:19.831Z,986.02
2016-11-18T02:10:20.080Z,986.06
2016-11-18T02:11:19.954Z,986.04
2016-11-18T02:12:20.080Z,986.03
2016-11-18T02:13:20.191Z,986.03
2016-11-18T02:14:20.160Z,985.98
2016-11-18T02:15:20.074Z,985.99
2016-11-18T02:16:20.026Z,985.94
2016-11-18T02:17:20.162Z,985.94
2016-11-18T02:18:20.202Z,985.95
2016-11-18T02:19:20.550Z,985.97
2016-11-18T02:20:20.396Z,985.89
2016-11-18T02:21:20.414Z,985.87
2016-11-18T02:22:20.397Z,985.86
2016-11-18T02:23:20.527Z,985.88
2016-11-18T02:24:20.195Z,985.85
2016-11-18T02:25:20.076Z,985.87
2016-11-18T02:26:20.155Z,985.85
2016-11-18T02:27:20.435Z,985.88
2016-11-18T02:28:20.441Z,985.84
2016-11-18T02:29:20.326Z,985.76
2016-11-18T02:30:20.565Z,985.79
2016-11-18T02:31:20.558Z,985.8
2016-11-18T02:32:20.431Z,985.79
2016-11-18T02:33:21.037Z,985.81
2016-11-18T02:34:20.923Z,985.75
2016-11-18T02:35:20.658Z,985.72
2016-11-18T02:36:20.686Z,985.69
2016-11-18T02:37:20.915Z,985.72
2016-11-18T02:38:20.560Z,985.69
2016-11-18T02:39:22.580Z,985.65
2016-11-18T02:40:21.386Z,985.75
2016-11-18T02:41:20.801Z,985.66
2016-11-18T02:42:21.163Z,985.68
2016-11-18T02:43:20.927Z,985.76
2016-11-18T02:44:21.263Z,985.67
2016-11-18T02:45:20.686Z,985.73
2016-11-18T02:46:20.920Z,985.67
2016-11-18T02:47:20.902Z,985.64
2016-11-18T02:48:20.927Z,985.64
2016-11-18T02:49:20.913Z,985.59
2016-11-18T02:50:20.811Z,985.51
2016-11-18T02:51:21.168Z,985.59
2016-11-18T02:52:20.808Z,985.58
2016-11-18T02:53:20.817Z,985.62
2016-11-18T02:54:21.140Z,985.62
2016-11-18T02:55:21.266Z,985.46
2016-11-18T02:56:20.934Z,985.45
2016-11-18T02:57:21.053Z,985.37
2016-11-18T02:58:20.767Z,985.3
2016-11-18T02:59:21.052Z,985.42
2016-11-18T03:00:21.162Z,985.42
2016-11-18T03:01:20.930Z,985.39
2016-11-18T03:02:21.142Z,985.45
2016-11-18T03:03:20.933Z,985.42
2016-11-18T03:04:21.055Z,985.37
2016-11-18T03:05:20.948Z,985.36
2016-11-18T03:06:21.297Z,985.38
2016-11-18T03:07:21.292Z,985.37
2016-11-18T03:08:21.278Z,985.36
2016-11-18T03:09:21.283Z,985.31
2016-11-18T03:10:21.052Z,985.31
2016-11-18T03:11:21.302Z,985.31
2016-11-18T03:12:21.180Z,985.28
2016-11-18T03:13:21.156Z,985.26
2016-11-18T03:14:21.056Z,985.23
2016-11-18T03:15:21.413Z,985.25
2016-11-18T03:16:21.064Z,985.25
2016-11-18T03:17:21.182Z,985.22
2016-11-18T03:18:21.162Z,985.18
2016-11-18T03:19:21.394Z,985.19
2016-11-18T03:20:21.539Z,985.18
2016-11-18T03:21:21.525Z,985.12
2016-11-18T03:22:21.667Z,985.07
2016-11-18T03:23:21.265Z,985.1
2016-11-18T03:24:21.542Z,985.02
2016-11-18T03:25:21.525Z,985.02
2016-11-18T03:26:21.656Z,985
2016-11-18T03:27:21.552Z,984.95
2016-11-18T03:28:21.422Z,984.92
2016-11-18T03:29:21.396Z,984.86
2016-11-18T03:30:21.401Z,984.9
2016-11-18T03:31:21.525Z,984.85
2016-11-18T03:32:21.661Z,984.82
2016-11-18T03:33:21.555Z,984.78
2016-11-18T03:34:21.550Z,984.82
2016-11-18T03:35:21.385Z,984.85
2016-11-18T03:36:21.550Z,984.78
2016-11-18T03:37:21.549Z,984.75
2016-11-18T03:38:21.786Z,984.67
2016-11-18T03:39:21.657Z,984.7
2016-11-18T03:40:21.435Z,984.62
2016-11-18T03:41:21.526Z,984.62
2016-11-18T03:42:21.644Z,984.61
2016-11-18T03:43:21.524Z,984.71
2016-11-18T03:44:21.657Z,984.68
2016-11-18T03:45:21.655Z,984.58
2016-11-18T03:46:21.676Z,984.56
2016-11-18T03:47:21.787Z,984.55
2016-11-18T03:48:22.013Z,984.5
2016-11-18T03:49:21.675Z,984.49
2016-11-18T03:50:21.683Z,984.56
2016-11-18T03:51:21.880Z,984.53
2016-11-18T03:52:21.917Z,984.57
2016-11-18T03:53:21.678Z,984.59
2016-11-18T03:54:21.776Z,984.57
2016-11-18T03:55:21.768Z,984.58
2016-11-18T03:56:21.800Z,984.53
2016-11-18T03:57:21.793Z,984.49
2016-11-18T03:58:21.803Z,984.47
2016-11-18T03:59:22.154Z,984.45
2016-11-18T04:00:21.806Z,984.45
2016-11-18T04:01:21.883Z,984.47
2016-11-18T04:02:22.294Z,984.45
2016-11-18T04:03:21.919Z,984.46
2016-11-18T04:04:21.895Z,984.45
2016-11-18T04:05:21.933Z,984.36
2016-11-18T04:06:22.032Z,984.35
2016-11-18T04:07:22.148Z,984.34
2016-11-18T04:08:22.016Z,984.23
2016-11-18T04:09:22.155Z,984.25
2016-11-18T04:10:22.036Z,984.23
2016-11-18T04:11:22.386Z,984.24
2016-11-18T04:12:22.289Z,984.22
2016-11-18T04:13:22.165Z,984.22
2016-11-18T04:14:22.128Z,984.19
2016-11-18T04:15:22.048Z,984.22
2016-11-18T04:16:22.146Z,984.2
2016-11-18T04:17:22.314Z,984.16
2016-11-18T04:18:22.278Z,984.11
2016-11-18T04:19:22.256Z,984.07
2016-11-18T04:20:22.257Z,984.09
2016-11-18T04:21:22.507Z,984.17
2016-11-18T04:22:22.378Z,984.1
2016-11-18T04:23:22.407Z,984.18
2016-11-18T04:24:22.268Z,984.16
2016-11-18T04:25:22.381Z,984.09
2016-11-18T04:26:22.305Z,984.15
2016-11-18T04:27:22.556Z,984.14
2016-11-18T04:28:22.392Z,984.24
2016-11-18T04:29:22.386Z,984.23
2016-11-18T04:30:22.289Z,984.21
2016-11-18T04:31:22.387Z,984.17
2016-11-18T04:32:22.701Z,984.18
2016-11-18T04:33:22.637Z,984.21
2016-11-18T04:34:22.531Z,984.15
2016-11-18T04:35:22.515Z,984.14
2016-11-18T04:36:22.629Z,984.08
2016-11-18T04:37:22.666Z,984.06
2016-11-18T04:38:22.649Z,983.89
2016-11-18T04:39:22.647Z,983.86
2016-11-18T04:40:22.745Z,983.86
2016-11-18T04:41:22.752Z,983.86
2016-11-18T04:42:22.781Z,983.84
2016-11-18T04:43:22.638Z,983.82
2016-11-18T04:44:22.642Z,983.83
2016-11-18T04:45:22.756Z,983.79
2016-11-18T04:46:23.031Z,983.8
2016-11-18T04:47:22.868Z,983.72
2016-11-18T04:48:22.760Z,983.72
2016-11-18T04:49:23.006Z,983.76
2016-11-18T04:50:22.910Z,983.75
2016-11-18T04:51:22.795Z,983.78
2016-11-18T04:52:22.912Z,983.73
2016-11-18T04:53:22.784Z,983.79
2016-11-18T04:54:23.030Z,983.72
2016-11-18T04:55:23.028Z,983.74
2016-11-18T04:56:22.884Z,983.69
2016-11-18T04:57:23.041Z,983.7
2016-11-18T04:58:23.038Z,983.75
2016-11-18T04:59:23.356Z,983.81
2016-11-18T05:00:23.141Z,983.79
2016-11-18T05:01:23.278Z,983.8
2016-11-18T05:02:23.038Z,983.71
2016-11-18T05:03:23.040Z,983.71
2016-11-18T05:04:23.166Z,983.66
2016-11-18T05:05:23.036Z,983.54
2016-11-18T05:06:23.277Z,983.8
2016-11-18T05:07:22.991Z,983.67
2016-11-18T05:08:23.028Z,983.73
2016-11-18T05:09:23.144Z,983.74
2016-11-18T05:10:23.047Z,983.74
2016-11-18T05:11:23.161Z,983.69
2016-11-18T05:12:23.369Z,983.66
2016-11-18T05:13:23.403Z,983.67
2016-11-18T05:14:23.293Z,983.62
2016-11-18T05:15:23.294Z,983.71
2016-11-18T05:16:23.485Z,983.63
2016-11-18T05:17:23.402Z,983.61
2016-11-18T05:18:23.483Z,983.62
2016-11-18T05:19:23.357Z,983.64
2016-11-18T05:20:23.486Z,983.63
2016-11-18T05:21:23.482Z,983.57
2016-11-18T05:22:23.510Z,983.53
2016-11-18T05:23:23.645Z,983.47
2016-11-18T05:24:23.504Z,983.41
2016-11-18T05:25:23.486Z,983.33
2016-11-18T05:26:23.633Z,983.45
2016-11-18T05:27:23.669Z,983.36
2016-11-18T05:28:23.757Z,983.5
2016-11-18T05:29:23.613Z,983.32
2016-11-18T05:30:23.409Z,983.36
2016-11-18T05:31:23.598Z,983.38
2016-11-18T05:32:23.726Z,983.39
2016-11-18T05:33:23.530Z,983.33
2016-11-18T05:34:23.765Z,983.41
2016-11-18T05:35:23.727Z,983.37
2016-11-18T05:36:24.115Z,983.37
2016-11-18T05:37:23.742Z,983.33
2016-11-18T05:38:23.772Z,983.34
2016-11-18T05:39:23.773Z,983.31
2016-11-18T05:40:24.155Z,983.29
2016-11-18T05:41:24.111Z,983.33
2016-11-18T05:42:24.016Z,983.23
2016-11-18T05:43:24.009Z,983.31
2016-11-18T05:44:24.021Z,983.32
2016-11-18T05:45:23.901Z,983.36
2016-11-18T05:46:24.021Z,983.19
2016-11-18T05:47:23.908Z,983.17
2016-11-18T05:48:23.781Z,983.18
2016-11-18T05:49:24.018Z,983.13
2016-11-18T05:50:24.620Z,983.03
2016-11-18T05:51:24.256Z,983.1
2016-11-18T05:52:24.266Z,983.13
2016-11-18T05:53:24.096Z,983.15
2016-11-18T05:54:24.257Z,983.14
2016-11-18T05:55:24.123Z,983.09
2016-11-18T05:56:24.119Z,983.19
2016-11-18T05:57:24.256Z,983.14
2016-11-18T05:58:24.476Z,983.14
2016-11-18T05:59:24.489Z,983.05
2016-11-18T06:00:24.152Z,983.06
2016-11-18T06:01:24.866Z,983.03
2016-11-18T06:02:24.225Z,983.03
2016-11-18T06:03:24.150Z,983.11
2016-11-18T06:04:24.156Z,983.07
2016-11-18T06:05:24.148Z,983.11
2016-11-18T06:06:24.277Z,983.06
2016-11-18T06:07:24.637Z,983.04
2016-11-18T06:08:24.503Z,983.08
2016-11-18T06:09:24.267Z,982.99
2016-11-18T06:10:24.514Z,983.14
2016-11-18T06:11:24.391Z,983.07
